sensor_id;sensor_type;location;lat;lon;timestamp;temperature;humidity
40289;DHT22;28991;52.028;5.526;2023-03-01T00:00:39;15.80;42.00
40289;DHT22;28991;52.028;5.526;2023-03-01T00:03:06;16.10;42.10
40289;DHT22;28991;52.028;5.526;2023-03-01T00:05:31;15.80;42.00
40289;DHT22;28991;52.028;5.526;2023-03-01T00:07:57;16.20;42.20
40289;DHT22;28991;52.028;5.526;2023-03-01T00:10:23;16.30;42.20
40289;DHT22;28991;52.028;5.526;2023-03-01T00:12:49;15.80;42.00
40289;DHT22;28991;52.028;5.526;2023-03-01T00:15:14;15.90;42.00
40289;DHT22;28991;52.028;5.526;2023-03-01T00:17:40;15.90;42.00
40289;DHT22;28991;52.028;5.526;2023-03-01T00:20:06;15.70;41.90
40289;DHT22;28991;52.028;5.526;2023-03-01T00:22:36;15.80;42.00
40289;DHT22;28991;52.028;5.526;2023-03-01T00:25:01;16.20;42.20
40289;DHT22;28991;52.028;5.526;2023-03-01T00:27:27;16.10;42.10
40289;DHT22;28991;52.028;5.526;2023-03-01T00:29:52;15.70;43.30
40289;DHT22;28991;52.028;5.526;2023-03-01T00:32:18;15.70;41.90
40289;DHT22;28991;52.028;5.526;2023-03-01T00:34:44;15.70;41.90
40289;DHT22;28991;52.028;5.526;2023-03-01T00:37:20;16.20;42.20
40289;DHT22;28991;52.028;5.526;2023-03-01T00:39:46;16.50;42.90
40289;DHT22;28991;52.028;5.526;2023-03-01T00:42:12;15.70;41.90
40289;DHT22;28991;52.028;5.526;2023-03-01T00:44:37;15.60;41.90
40289;DHT22;28991;52.028;5.526;2023-03-01T00:47:03;16.00;43.30
40289;DHT22;28991;52.028;5.526;2023-03-01T00:49:29;15.70;42.00
40289;DHT22;28991;52.028;5.526;2023-03-01T00:51:54;15.70;41.90
40289;DHT22;28991;52.028;5.526;2023-03-01T00:54:20;15.80;42.00
40289;DHT22;28991;52.028;5.526;2023-03-01T00:56:45;16.00;42.10
40289;DHT22;28991;52.028;5.526;2023-03-01T00:59:11;15.70;42.60
40289;DHT22;28991;52.028;5.526;2023-03-01T01:01:36;16.70;42.50
40289;DHT22;28991;52.028;5.526;2023-03-01T01:04:07;15.80;43.10
40289;DHT22;28991;52.028;5.526;2023-03-01T01:06:36;16.20;42.20
40289;DHT22;28991;52.028;5.526;2023-03-01T01:09:05;16.40;42.30
40289;DHT22;28991;52.028;5.526;2023-03-01T01:11:31;15.80;43.30
40289;DHT22;28991;52.028;5.526;2023-03-01T01:13:57;15.70;42.00
40289;DHT22;28991;52.028;5.526;2023-03-01T01:16:25;15.70;42.00
40289;DHT22;28991;52.028;5.526;2023-03-01T01:18:51;15.70;42.00
40289;DHT22;28991;52.028;5.526;2023-03-01T01:21:19;16.30;42.30
40289;DHT22;28991;52.028;5.526;2023-03-01T01:23:46;15.50;43.10
40289;DHT22;28991;52.028;5.526;2023-03-01T01:26:18;15.60;41.90
40289;DHT22;28991;52.028;5.526;2023-03-01T01:28:44;15.80;42.00
40289;DHT22;28991;52.028;5.526;2023-03-01T01:31:10;15.90;42.10
40289;DHT22;28991;52.028;5.526;2023-03-01T01:33:36;15.80;42.00
40289;DHT22;28991;52.028;5.526;2023-03-01T01:36:03;15.70;42.00
40289;DHT22;28991;52.028;5.526;2023-03-01T01:38:29;15.70;42.00
40289;DHT22;28991;52.028;5.526;2023-03-01T01:40:55;15.60;41.90
40289;DHT22;28991;52.028;5.526;2023-03-01T01:45:49;15.60;41.90
40289;DHT22;28991;52.028;5.526;2023-03-01T01:48:20;15.80;42.00
40289;DHT22;28991;52.028;5.526;2023-03-01T01:50:55;15.50;41.80
40289;DHT22;28991;52.028;5.526;2023-03-01T01:53:22;16.20;42.20
40289;DHT22;28991;52.028;5.526;2023-03-01T01:55:56;16.10;43.50
40289;DHT22;28991;52.028;5.526;2023-03-01T01:58:25;16.20;42.20
40289;DHT22;28991;52.028;5.526;2023-03-01T02:00:53;15.60;41.90
40289;DHT22;28991;52.028;5.526;2023-03-01T02:03:25;15.60;41.90
40289;DHT22;28991;52.028;5.526;2023-03-01T02:05:59;15.40;41.70
40289;DHT22;28991;52.028;5.526;2023-03-01T02:08:29;15.50;41.80
40289;DHT22;28991;52.028;5.526;2023-03-01T02:10:56;15.60;41.80
40289;DHT22;28991;52.028;5.526;2023-03-01T02:13:22;15.80;41.90
40289;DHT22;28991;52.028;5.526;2023-03-01T02:15:48;16.90;42.60
40289;DHT22;28991;52.028;5.526;2023-03-01T02:18:17;16.20;42.10
40289;DHT22;28991;52.028;5.526;2023-03-01T02:23:31;15.50;43.10
40289;DHT22;28991;52.028;5.526;2023-03-01T02:28:43;15.60;41.80
40289;DHT22;28991;52.028;5.526;2023-03-01T02:31:10;15.60;41.80
40289;DHT22;28991;52.028;5.526;2023-03-01T02:33:58;16.30;42.20
40289;DHT22;28991;52.028;5.526;2023-03-01T02:36:26;15.60;43.20
40289;DHT22;28991;52.028;5.526;2023-03-01T02:38:57;15.50;41.80
40289;DHT22;28991;52.028;5.526;2023-03-01T02:41:24;15.50;41.70
40289;DHT22;28991;52.028;5.526;2023-03-01T02:43:51;15.30;41.60
40289;DHT22;28991;52.028;5.526;2023-03-01T02:46:23;16.10;42.10
40289;DHT22;28991;52.028;5.526;2023-03-01T02:48:54;15.60;41.80
40289;DHT22;28991;52.028;5.526;2023-03-01T02:51:27;15.60;43.10
40289;DHT22;28991;52.028;5.526;2023-03-01T02:56:35;14.70;42.60
40289;DHT22;28991;52.028;5.526;2023-03-01T02:59:01;15.90;42.00
40289;DHT22;28991;52.028;5.526;2023-03-01T03:01:28;15.30;42.90
40289;DHT22;28991;52.028;5.526;2023-03-01T03:04:14;15.50;41.70
40289;DHT22;28991;52.028;5.526;2023-03-01T03:06:44;16.40;42.20
40289;DHT22;28991;52.028;5.526;2023-03-01T03:09:11;15.40;41.70
40289;DHT22;28991;52.028;5.526;2023-03-01T03:11:37;15.00;41.50
40289;DHT22;28991;52.028;5.526;2023-03-01T03:14:04;15.50;41.80
40289;DHT22;28991;52.028;5.526;2023-03-01T03:16:30;15.40;42.30
40289;DHT22;28991;52.028;5.526;2023-03-01T03:18:56;15.50;41.70
40289;DHT22;28991;52.028;5.526;2023-03-01T03:21:31;15.60;41.80
40289;DHT22;28991;52.028;5.526;2023-03-01T03:23:56;15.40;42.20
40289;DHT22;28991;52.028;5.526;2023-03-01T03:26:23;15.50;41.70
40289;DHT22;28991;52.028;5.526;2023-03-01T03:28:48;15.50;41.70
40289;DHT22;28991;52.028;5.526;2023-03-01T03:31:14;15.70;43.20
40289;DHT22;28991;52.028;5.526;2023-03-01T03:33:39;15.90;42.00
40289;DHT22;28991;52.028;5.526;2023-03-01T03:36:05;15.40;43.00
40289;DHT22;28991;52.028;5.526;2023-03-01T03:38:31;15.50;41.70
40289;DHT22;28991;52.028;5.526;2023-03-01T03:41:03;15.50;41.70
40289;DHT22;28991;52.028;5.526;2023-03-01T03:43:31;15.80;41.90
40289;DHT22;28991;52.028;5.526;2023-03-01T03:45:57;15.80;41.90
40289;DHT22;28991;52.028;5.526;2023-03-01T03:48:23;15.50;41.70
40289;DHT22;28991;52.028;5.526;2023-03-01T03:50:54;15.40;41.60
40289;DHT22;28991;52.028;5.526;2023-03-01T03:53:21;15.70;41.80
40289;DHT22;28991;52.028;5.526;2023-03-01T03:55:47;17.30;42.60
40289;DHT22;28991;52.028;5.526;2023-03-01T03:58:15;15.50;42.90
40289;DHT22;28991;52.028;5.526;2023-03-01T04:00:43;15.40;41.60
40289;DHT22;28991;52.028;5.526;2023-03-01T04:03:10;16.40;43.40
40289;DHT22;28991;52.028;5.526;2023-03-01T04:05:37;15.30;41.50
40289;DHT22;28991;52.028;5.526;2023-03-01T04:08:04;15.30;41.50
40289;DHT22;28991;52.028;5.526;2023-03-01T04:10:40;15.40;42.90
40289;DHT22;28991;52.028;5.526;2023-03-01T04:13:08;15.40;41.60
40289;DHT22;28991;52.028;5.526;2023-03-01T04:15:35;16.30;42.10
40289;DHT22;28991;52.028;5.526;2023-03-01T04:18:01;15.50;41.70
40289;DHT22;28991;52.028;5.526;2023-03-01T04:20:29;15.30;41.50
40289;DHT22;28991;52.028;5.526;2023-03-01T04:25:44;15.70;41.80
40289;DHT22;28991;52.028;5.526;2023-03-01T04:28:11;14.80;41.30
40289;DHT22;28991;52.028;5.526;2023-03-01T04:30:37;15.90;41.90
40289;DHT22;28991;52.028;5.526;2023-03-01T04:33:07;15.40;41.60
40289;DHT22;28991;52.028;5.526;2023-03-01T04:35:35;15.40;41.60
40289;DHT22;28991;52.028;5.526;2023-03-01T04:38:01;15.40;43.00
40289;DHT22;28991;52.028;5.526;2023-03-01T04:40:27;15.30;41.60
40289;DHT22;28991;52.028;5.526;2023-03-01T04:42:52;15.40;41.60
40289;DHT22;28991;52.028;5.526;2023-03-01T04:45:18;15.40;43.00
40289;DHT22;28991;52.028;5.526;2023-03-01T04:47:45;15.70;41.80
40289;DHT22;28991;52.028;5.526;2023-03-01T04:50:14;15.30;41.50
40289;DHT22;28991;52.028;5.526;2023-03-01T04:52:40;16.30;42.10
40289;DHT22;28991;52.028;5.526;2023-03-01T04:55:06;15.40;41.60
40289;DHT22;28991;52.028;5.526;2023-03-01T04:57:32;15.20;41.50
40289;DHT22;28991;52.028;5.526;2023-03-01T04:59:57;15.40;41.60
40289;DHT22;28991;52.028;5.526;2023-03-01T05:02:23;15.40;41.60
40289;DHT22;28991;52.028;5.526;2023-03-01T05:04:49;15.60;43.00
40289;DHT22;28991;52.028;5.526;2023-03-01T05:07:14;15.30;41.50
40289;DHT22;28991;52.028;5.526;2023-03-01T05:09:48;15.40;41.60
40289;DHT22;28991;52.028;5.526;2023-03-01T05:12:14;16.10;41.90
40289;DHT22;28991;52.028;5.526;2023-03-01T05:14:41;15.40;41.60
40289;DHT22;28991;52.028;5.526;2023-03-01T05:17:07;15.30;41.50
40289;DHT22;28991;52.028;5.526;2023-03-01T05:19:33;15.30;41.50
40289;DHT22;28991;52.028;5.526;2023-03-01T05:21:58;14.50;41.10
40289;DHT22;28991;52.028;5.526;2023-03-01T05:24:28;15.30;41.60
40289;DHT22;28991;52.028;5.526;2023-03-01T05:26:54;15.50;41.60
40289;DHT22;28991;52.028;5.526;2023-03-01T05:29:20;15.30;41.50
40289;DHT22;28991;52.028;5.526;2023-03-01T05:31:54;15.20;41.50
40289;DHT22;28991;52.028;5.526;2023-03-01T05:34:31;15.00;42.60
40289;DHT22;28991;52.028;5.526;2023-03-01T05:36:57;15.20;42.70
40289;DHT22;28991;52.028;5.526;2023-03-01T05:39:26;15.50;42.80
40289;DHT22;28991;52.028;5.526;2023-03-01T05:41:53;15.40;41.60
40289;DHT22;28991;52.028;5.526;2023-03-01T05:44:19;15.30;41.50
40289;DHT22;28991;52.028;5.526;2023-03-01T05:46:45;14.90;41.30
40289;DHT22;28991;52.028;5.526;2023-03-01T05:49:12;15.90;41.80
40289;DHT22;28991;52.028;5.526;2023-03-01T05:51:39;15.40;41.50
40289;DHT22;28991;52.028;5.526;2023-03-01T05:54:05;15.20;41.40
40289;DHT22;28991;52.028;5.526;2023-03-01T05:56:35;15.30;41.50
40289;DHT22;28991;52.028;5.526;2023-03-01T05:59:02;17.20;42.40
40289;DHT22;28991;52.028;5.526;2023-03-01T06:01:28;15.10;41.30
40289;DHT22;28991;52.028;5.526;2023-03-01T06:03:54;15.40;41.50
40289;DHT22;28991;52.028;5.526;2023-03-01T06:06:21;15.30;41.40
40289;DHT22;28991;52.028;5.526;2023-03-01T06:08:47;16.00;41.80
40289;DHT22;28991;52.028;5.526;2023-03-01T06:11:12;15.30;41.40
40289;DHT22;28991;52.028;5.526;2023-03-01T06:13:38;15.40;41.50
40289;DHT22;28991;52.028;5.526;2023-03-01T06:16:07;15.70;41.60
40289;DHT22;28991;52.028;5.526;2023-03-01T06:18:32;15.50;41.50
40289;DHT22;28991;52.028;5.526;2023-03-01T06:20:59;15.50;41.50
40289;DHT22;28991;52.028;5.526;2023-03-01T06:23:25;15.40;41.50
40289;DHT22;28991;52.028;5.526;2023-03-01T06:25:50;16.00;41.70
40289;DHT22;28991;52.028;5.526;2023-03-01T06:28:16;15.30;41.30
40289;DHT22;28991;52.028;5.526;2023-03-01T06:30:41;15.40;42.20
40289;DHT22;28991;52.028;5.526;2023-03-01T06:33:07;15.50;41.50
40289;DHT22;28991;52.028;5.526;2023-03-01T06:35:33;16.20;41.80
40289;DHT22;28991;52.028;5.526;2023-03-01T06:38:01;15.60;41.50
40289;DHT22;28991;52.028;5.526;2023-03-01T06:40:27;15.20;41.20
40289;DHT22;28991;52.028;5.526;2023-03-01T06:42:53;15.90;41.60
40289;DHT22;28991;52.028;5.526;2023-03-01T06:45:20;15.40;40.80
40289;DHT22;28991;52.028;5.526;2023-03-01T06:47:46;16.30;41.80
40289;DHT22;28991;52.028;5.526;2023-03-01T06:50:12;18.00;42.20
40289;DHT22;28991;52.028;5.526;2023-03-01T06:52:38;15.40;41.30
40289;DHT22;28991;52.028;5.526;2023-03-01T06:55:04;15.80;41.50
40289;DHT22;28991;52.028;5.526;2023-03-01T06:57:30;15.30;41.20
40289;DHT22;28991;52.028;5.526;2023-03-01T06:59:56;16.00;42.70
40289;DHT22;28991;52.028;5.526;2023-03-01T07:02:21;15.80;42.40
40289;DHT22;28991;52.028;5.526;2023-03-01T07:04:52;15.50;41.10
40289;DHT22;28991;52.028;5.526;2023-03-01T07:07:18;15.70;40.50
40289;DHT22;28991;52.028;5.526;2023-03-01T07:09:48;15.60;40.90
40289;DHT22;28991;52.028;5.526;2023-03-01T07:12:13;15.90;40.90
40289;DHT22;28991;52.028;5.526;2023-03-01T07:14:39;15.60;40.70
40289;DHT22;28991;52.028;5.526;2023-03-01T07:17:05;16.40;41.00
40289;DHT22;28991;52.028;5.526;2023-03-01T07:19:30;16.00;40.60
40289;DHT22;28991;52.028;5.526;2023-03-01T07:21:56;16.20;41.80
40289;DHT22;28991;52.028;5.526;2023-03-01T07:24:22;16.00;40.40
40289;DHT22;28991;52.028;5.526;2023-03-01T07:26:51;16.20;40.30
40289;DHT22;28991;52.028;5.526;2023-03-01T07:29:17;16.20;40.20
40289;DHT22;28991;52.028;5.526;2023-03-01T07:31:43;16.20;40.20
40289;DHT22;28991;52.028;5.526;2023-03-01T07:34:09;16.20;40.00
40289;DHT22;28991;52.028;5.526;2023-03-01T07:36:34;16.30;39.90
40289;DHT22;28991;52.028;5.526;2023-03-01T07:39:00;16.40;39.80
40289;DHT22;28991;52.028;5.526;2023-03-01T07:41:28;16.40;39.70
40289;DHT22;28991;52.028;5.526;2023-03-01T07:43:53;16.50;39.70
40289;DHT22;28991;52.028;5.526;2023-03-01T07:46:19;16.80;39.80
40289;DHT22;28991;52.028;5.526;2023-03-01T07:48:44;16.10;40.70
40289;DHT22;28991;52.028;5.526;2023-03-01T07:51:10;16.90;39.70
40289;DHT22;28991;52.028;5.526;2023-03-01T07:53:35;17.00;40.90
40289;DHT22;28991;52.028;5.526;2023-03-01T07:56:06;17.10;41.30
40289;DHT22;28991;52.028;5.526;2023-03-01T07:58:37;16.80;39.40
40289;DHT22;28991;52.028;5.526;2023-03-01T08:01:07;17.20;39.60
40289;DHT22;28991;52.028;5.526;2023-03-01T08:03:33;16.90;39.30
40289;DHT22;28991;52.028;5.526;2023-03-01T08:06:00;17.30;39.50
40289;DHT22;28991;52.028;5.526;2023-03-01T08:08:26;17.10;39.40
40289;DHT22;28991;52.028;5.526;2023-03-01T08:10:52;17.10;39.30
40289;DHT22;28991;52.028;5.526;2023-03-01T08:13:17;16.80;40.60
40289;DHT22;28991;52.028;5.526;2023-03-01T08:15:48;17.10;39.20
40289;DHT22;28991;52.028;5.526;2023-03-01T08:18:14;17.20;39.20
40289;DHT22;28991;52.028;5.526;2023-03-01T08:20:40;17.00;40.70
40289;DHT22;28991;52.028;5.526;2023-03-01T08:23:05;17.60;39.40
40289;DHT22;28991;52.028;5.526;2023-03-01T08:25:31;17.70;39.40
40289;DHT22;28991;52.028;5.526;2023-03-01T08:27:56;17.40;39.20
40289;DHT22;28991;52.028;5.526;2023-03-01T08:30:22;17.70;39.30
40289;DHT22;28991;52.028;5.526;2023-03-01T08:32:49;17.50;39.10
40289;DHT22;28991;52.028;5.526;2023-03-01T08:35:15;17.50;41.20
40289;DHT22;28991;52.028;5.526;2023-03-01T08:37:41;17.10;41.20
40289;DHT22;28991;52.028;5.526;2023-03-01T08:40:07;17.60;41.30
40289;DHT22;28991;52.028;5.526;2023-03-01T08:42:38;17.60;41.30
40289;DHT22;28991;52.028;5.526;2023-03-01T08:45:04;18.20;39.10
40289;DHT22;28991;52.028;5.526;2023-03-01T08:47:29;18.80;41.80
40289;DHT22;28991;52.028;5.526;2023-03-01T08:49:55;17.80;38.70
40289;DHT22;28991;52.028;5.526;2023-03-01T08:52:21;18.10;38.70
40289;DHT22;28991;52.028;5.526;2023-03-01T08:54:49;18.30;38.70
40289;DHT22;28991;52.028;5.526;2023-03-01T08:57:15;18.10;41.00
40289;DHT22;28991;52.028;5.526;2023-03-01T08:59:41;17.20;40.50
40289;DHT22;28991;52.028;5.526;2023-03-01T09:02:12;17.40;40.50
40289;DHT22;28991;52.028;5.526;2023-03-01T09:04:38;17.80;39.20
40289;DHT22;28991;52.028;5.526;2023-03-01T09:07:04;17.70;40.20
40289;DHT22;28991;52.028;5.526;2023-03-01T09:09:30;18.10;38.00
40289;DHT22;28991;52.028;5.526;2023-03-01T09:11:55;18.50;38.00
40289;DHT22;28991;52.028;5.526;2023-03-01T09:14:21;18.20;37.80
40289;DHT22;28991;52.028;5.526;2023-03-01T09:16:46;18.40;37.80
40289;DHT22;28991;52.028;5.526;2023-03-01T09:19:12;18.20;37.60
40289;DHT22;28991;52.028;5.526;2023-03-01T09:21:38;18.30;37.50
40289;DHT22;28991;52.028;5.526;2023-03-01T09:24:04;18.70;40.10
40289;DHT22;28991;52.028;5.526;2023-03-01T09:26:29;18.40;37.40
40289;DHT22;28991;52.028;5.526;2023-03-01T09:28:56;18.40;37.30
40289;DHT22;28991;52.028;5.526;2023-03-01T09:31:23;18.40;37.20
40289;DHT22;28991;52.028;5.526;2023-03-01T09:33:51;18.40;37.20
40289;DHT22;28991;52.028;5.526;2023-03-01T09:36:19;18.50;37.10
40289;DHT22;28991;52.028;5.526;2023-03-01T09:38:46;18.50;37.00
40289;DHT22;28991;52.028;5.526;2023-03-01T09:46:14;18.70;37.00
40289;DHT22;28991;52.028;5.526;2023-03-01T09:51:29;18.70;36.80
40289;DHT22;28991;52.028;5.526;2023-03-01T09:53:56;18.70;36.80
40289;DHT22;28991;52.028;5.526;2023-03-01T10:02:11;18.80;36.70
40289;DHT22;28991;52.028;5.526;2023-03-01T10:04:49;18.80;36.60
40289;DHT22;28991;52.028;5.526;2023-03-01T10:07:27;18.80;36.60
40289;DHT22;28991;52.028;5.526;2023-03-01T10:09:54;18.90;36.60
40289;DHT22;28991;52.028;5.526;2023-03-01T10:12:26;18.80;36.50
40289;DHT22;28991;52.028;5.526;2023-03-01T10:15:20;18.90;36.50
40289;DHT22;28991;52.028;5.526;2023-03-01T10:18:00;18.90;36.40
40289;DHT22;28991;52.028;5.526;2023-03-01T10:20:54;18.90;39.00
40289;DHT22;28991;52.028;5.526;2023-03-01T10:23:24;19.00;36.30
40289;DHT22;28991;52.028;5.526;2023-03-01T10:26:27;19.10;36.20
40289;DHT22;28991;52.028;5.526;2023-03-01T10:29:04;19.10;35.90
40289;DHT22;28991;52.028;5.526;2023-03-01T10:31:47;19.30;35.70
40289;DHT22;28991;52.028;5.526;2023-03-01T10:36:57;19.50;35.10
40289;DHT22;28991;52.028;5.526;2023-03-01T10:39:24;19.60;34.70
40289;DHT22;28991;52.028;5.526;2023-03-01T10:41:57;19.60;34.40
40289;DHT22;28991;52.028;5.526;2023-03-01T10:44:40;19.80;34.20
40289;DHT22;28991;52.028;5.526;2023-03-01T10:47:16;19.90;33.80
40289;DHT22;28991;52.028;5.526;2023-03-01T10:50:18;20.00;33.60
40289;DHT22;28991;52.028;5.526;2023-03-01T10:53:02;20.10;35.30
40289;DHT22;28991;52.028;5.526;2023-03-01T10:55:36;20.50;35.20
40289;DHT22;28991;52.028;5.526;2023-03-01T10:58:21;20.40;32.90
40289;DHT22;28991;52.028;5.526;2023-03-01T11:00:54;20.60;32.60
40289;DHT22;28991;52.028;5.526;2023-03-01T11:03:26;20.70;32.50
40289;DHT22;28991;52.028;5.526;2023-03-01T11:08:36;20.90;32.10
40289;DHT22;28991;52.028;5.526;2023-03-01T11:14:07;21.10;31.60
40289;DHT22;28991;52.028;5.526;2023-03-01T11:16:35;21.20;31.40
40289;DHT22;28991;52.028;5.526;2023-03-01T11:19:18;21.30;31.30
40289;DHT22;28991;52.028;5.526;2023-03-01T11:22:07;21.40;31.10
40289;DHT22;28991;52.028;5.526;2023-03-01T11:24:48;21.40;31.00
40289;DHT22;28991;52.028;5.526;2023-03-01T11:27:37;21.30;32.60
40289;DHT22;28991;52.028;5.526;2023-03-01T11:30:23;21.40;30.60
40289;DHT22;28991;52.028;5.526;2023-03-01T11:33:03;21.80;32.60
40289;DHT22;28991;52.028;5.526;2023-03-01T11:35:32;21.60;30.50
40289;DHT22;28991;52.028;5.526;2023-03-01T11:43:28;21.70;30.30
40289;DHT22;28991;52.028;5.526;2023-03-01T11:54:11;22.10;30.60
40289;DHT22;28991;52.028;5.526;2023-03-01T11:57:11;21.60;30.50
40289;DHT22;28991;52.028;5.526;2023-03-01T12:05:24;20.90;31.70
40289;DHT22;28991;52.028;5.526;2023-03-01T12:13:27;20.00;33.40
40289;DHT22;28991;52.028;5.526;2023-03-01T12:16:07;19.80;33.60
40289;DHT22;28991;52.028;5.526;2023-03-01T12:19:00;19.70;33.80
40289;DHT22;28991;52.028;5.526;2023-03-01T12:38:42;18.20;35.70
40289;DHT22;28991;52.028;5.526;2023-03-01T12:43:41;18.30;36.20
40289;DHT22;28991;52.028;5.526;2023-03-01T12:49:42;18.20;35.80
40289;DHT22;28991;52.028;5.526;2023-03-01T12:52:23;18.00;36.00
40289;DHT22;28991;52.028;5.526;2023-03-01T12:54:53;17.90;36.00
40289;DHT22;28991;52.028;5.526;2023-03-01T12:57:36;17.90;36.10
40289;DHT22;28991;52.028;5.526;2023-03-01T13:02:59;17.70;36.30
40289;DHT22;28991;52.028;5.526;2023-03-01T13:05:34;17.70;36.40
40289;DHT22;28991;52.028;5.526;2023-03-01T13:08:20;18.50;36.80
40289;DHT22;28991;52.028;5.526;2023-03-01T13:10:52;17.40;36.30
40289;DHT22;28991;52.028;5.526;2023-03-01T13:13:23;17.40;36.40
40289;DHT22;28991;52.028;5.526;2023-03-01T13:15:49;17.50;36.50
40289;DHT22;28991;52.028;5.526;2023-03-01T13:31:01;17.30;36.80
40289;DHT22;28991;52.028;5.526;2023-03-01T13:35:53;17.30;36.90
40289;DHT22;28991;52.028;5.526;2023-03-01T13:38:48;17.40;37.00
40289;DHT22;28991;52.028;5.526;2023-03-01T13:44:30;17.20;37.00
40289;DHT22;28991;52.028;5.526;2023-03-01T13:52:39;17.20;37.10
40289;DHT22;28991;52.028;5.526;2023-03-01T13:57:44;16.70;38.00
40289;DHT22;28991;52.028;5.526;2023-03-01T14:00:56;17.20;38.10
40289;DHT22;28991;52.028;5.526;2023-03-01T14:03:23;17.10;37.20
40289;DHT22;28991;52.028;5.526;2023-03-01T14:06:07;17.10;37.20
40289;DHT22;28991;52.028;5.526;2023-03-01T14:08:34;17.10;37.30
40289;DHT22;28991;52.028;5.526;2023-03-01T14:19:29;17.70;38.70
40289;DHT22;28991;52.028;5.526;2023-03-01T14:22:18;17.00;37.40
40289;DHT22;28991;52.028;5.526;2023-03-01T14:25:01;17.30;38.50
40289;DHT22;28991;52.028;5.526;2023-03-01T14:27:32;17.00;37.50
40289;DHT22;28991;52.028;5.526;2023-03-01T14:30:04;17.00;37.50
40289;DHT22;28991;52.028;5.526;2023-03-01T14:32:35;16.90;37.50
40289;DHT22;28991;52.028;5.526;2023-03-01T14:35:01;17.00;37.50
40289;DHT22;28991;52.028;5.526;2023-03-01T14:37:29;17.00;37.50
40289;DHT22;28991;52.028;5.526;2023-03-01T14:39:56;16.50;38.30
40289;DHT22;28991;52.028;5.526;2023-03-01T14:42:24;17.00;38.70
40289;DHT22;28991;52.028;5.526;2023-03-01T14:44:53;16.70;37.50
40289;DHT22;28991;52.028;5.526;2023-03-01T14:47:33;16.90;37.60
40289;DHT22;28991;52.028;5.526;2023-03-01T14:50:07;16.80;37.60
40289;DHT22;28991;52.028;5.526;2023-03-01T14:52:42;16.80;37.60
40289;DHT22;28991;52.028;5.526;2023-03-01T14:55:17;16.90;37.70
40289;DHT22;28991;52.028;5.526;2023-03-01T14:57:45;16.90;37.70
40289;DHT22;28991;52.028;5.526;2023-03-01T15:00:19;16.90;37.70
40289;DHT22;28991;52.028;5.526;2023-03-01T15:02:47;16.90;37.80
40289;DHT22;28991;52.028;5.526;2023-03-01T15:05:14;17.50;38.10
40289;DHT22;28991;52.028;5.526;2023-03-01T15:07:42;16.80;37.80
40289;DHT22;28991;52.028;5.526;2023-03-01T15:10:27;16.80;37.80
40289;DHT22;28991;52.028;5.526;2023-03-01T15:12:52;17.20;38.90
40289;DHT22;28991;52.028;5.526;2023-03-01T15:15:37;16.70;38.70
40289;DHT22;28991;52.028;5.526;2023-03-01T15:18:22;16.80;37.90
40289;DHT22;28991;52.028;5.526;2023-03-01T15:20:51;16.50;38.60
40289;DHT22;28991;52.028;5.526;2023-03-01T15:25:45;16.50;38.70
40289;DHT22;28991;52.028;5.526;2023-03-01T15:28:18;16.80;37.90
40289;DHT22;28991;52.028;5.526;2023-03-01T15:30:45;16.80;38.00
40289;DHT22;28991;52.028;5.526;2023-03-01T15:33:29;17.10;38.20
40289;DHT22;28991;52.028;5.526;2023-03-01T15:36:00;16.80;38.00
40289;DHT22;28991;52.028;5.526;2023-03-01T15:38:31;16.90;38.90
40289;DHT22;28991;52.028;5.526;2023-03-01T15:41:00;16.00;37.50
40289;DHT22;28991;52.028;5.526;2023-03-01T15:43:45;16.70;38.00
40289;DHT22;28991;52.028;5.526;2023-03-01T15:46:18;16.80;38.10
40289;DHT22;28991;52.028;5.526;2023-03-01T15:48:46;16.90;38.20
40289;DHT22;28991;52.028;5.526;2023-03-01T15:51:13;16.80;38.10
40289;DHT22;28991;52.028;5.526;2023-03-01T15:53:40;17.40;38.40
40289;DHT22;28991;52.028;5.526;2023-03-01T15:56:06;16.80;38.20
40289;DHT22;28991;52.028;5.526;2023-03-01T15:58:32;17.10;39.10
40289;DHT22;28991;52.028;5.526;2023-03-01T16:00:58;16.40;38.00
40289;DHT22;28991;52.028;5.526;2023-03-01T16:03:24;16.70;38.20
40289;DHT22;28991;52.028;5.526;2023-03-01T16:05:50;17.20;39.40
40289;DHT22;28991;52.028;5.526;2023-03-01T16:08:17;16.50;38.10
40289;DHT22;28991;52.028;5.526;2023-03-01T16:10:43;17.20;39.50
40289;DHT22;28991;52.028;5.526;2023-03-01T16:13:13;16.80;38.30
40289;DHT22;28991;52.028;5.526;2023-03-01T16:15:39;17.40;38.60
40289;DHT22;28991;52.028;5.526;2023-03-01T16:18:05;16.40;38.10
40289;DHT22;28991;52.028;5.526;2023-03-01T16:20:33;16.60;38.30
40289;DHT22;28991;52.028;5.526;2023-03-01T16:22:59;16.80;38.40
40289;DHT22;28991;52.028;5.526;2023-03-01T16:25:25;16.70;39.10
40289;DHT22;28991;52.028;5.526;2023-03-01T16:27:51;16.60;38.30
40289;DHT22;28991;52.028;5.526;2023-03-01T16:30:21;16.80;38.40
40289;DHT22;28991;52.028;5.526;2023-03-01T16:32:48;16.60;38.40
40289;DHT22;28991;52.028;5.526;2023-03-01T16:35:16;16.50;38.30
40289;DHT22;28991;52.028;5.526;2023-03-01T16:37:42;16.50;38.30
40289;DHT22;28991;52.028;5.526;2023-03-01T16:40:26;16.40;38.40
40289;DHT22;28991;52.028;5.526;2023-03-01T16:42:52;16.40;38.40
40289;DHT22;28991;52.028;5.526;2023-03-01T16:45:19;17.00;38.70
40289;DHT22;28991;52.028;5.526;2023-03-01T16:47:45;15.90;39.10
40289;DHT22;28991;52.028;5.526;2023-03-01T16:50:11;16.40;38.40
40289;DHT22;28991;52.028;5.526;2023-03-01T16:52:36;16.40;38.50
40289;DHT22;28991;52.028;5.526;2023-03-01T16:55:04;16.50;38.50
40289;DHT22;28991;52.028;5.526;2023-03-01T16:57:30;16.60;38.60
40289;DHT22;28991;52.028;5.526;2023-03-01T16:59:55;16.50;38.50
40289;DHT22;28991;52.028;5.526;2023-03-01T17:02:22;16.40;38.50
40289;DHT22;28991;52.028;5.526;2023-03-01T17:04:54;16.20;38.50
40289;DHT22;28991;52.028;5.526;2023-03-01T17:07:20;16.40;39.60
40289;DHT22;28991;52.028;5.526;2023-03-01T17:09:46;16.70;39.70
40289;DHT22;28991;52.028;5.526;2023-03-01T17:12:12;16.40;38.60
40289;DHT22;28991;52.028;5.526;2023-03-01T17:14:38;16.90;38.90
40289;DHT22;28991;52.028;5.526;2023-03-01T17:17:07;16.20;38.60
40289;DHT22;28991;52.028;5.526;2023-03-01T17:19:32;17.00;39.10
40289;DHT22;28991;52.028;5.526;2023-03-01T17:21:59;15.50;38.90
40289;DHT22;28991;52.028;5.526;2023-03-01T17:24:25;16.30;38.70
40289;DHT22;28991;52.028;5.526;2023-03-01T17:26:50;16.30;38.80
40289;DHT22;28991;52.028;5.526;2023-03-01T17:29:16;16.00;38.60
40289;DHT22;28991;52.028;5.526;2023-03-01T17:31:43;16.70;39.00
40289;DHT22;28991;52.028;5.526;2023-03-01T17:34:09;16.20;39.40
40289;DHT22;28991;52.028;5.526;2023-03-01T17:36:34;16.20;38.80
40289;DHT22;28991;52.028;5.526;2023-03-01T17:39:06;16.20;38.80
40289;DHT22;28991;52.028;5.526;2023-03-01T17:41:31;16.00;38.80
40289;DHT22;28991;52.028;5.526;2023-03-01T17:43:57;16.20;38.90
40289;DHT22;28991;52.028;5.526;2023-03-01T17:46:22;16.20;38.90